Terminal Aerodrome Forecast
Issued by NWS Austin/San Antonio, TX

Home | Current Version | Previous Version | Text Only | Print | Product List | Glossary On
Versions: 1 2 3 4 5 6 7 8 9 10 11 12 13 14
000
FTUS44 KEWX 281725
TAFAUS
TAF
KAUS 281725Z 2818/2924 19007KT P6SM FEW200
     FM282100 15007KT P6SM FEW070
     FM290600 20005KT P6SM FEW250
     FM291800 16006KT P6SM SCT250=

USA.gov is the U.S. government's official web portal to all federal, state and local government web resources and services.